地図

経路データ

SID SEASON NUMBER BASIN SUBBASIN NAME ISO_TIME NATURE LAT LON WMO_WIND WMO_PRES WMO_AGENCY TRACK_TYPE DIST2LAND LANDFALL IFLAG USA_AGENCY USA_ATCF_ID USA_LAT USA_LON USA_RECORD USA_STATUS USA_WIND USA_PRES USA_SSHS USA_R34_NE USA_R34_SE USA_R34_SW USA_R34_NW USA_R50_NE USA_R50_SE USA_R50_SW USA_R50_NW USA_R64_NE USA_R64_SE USA_R64_SW USA_R64_NW USA_POCI USA_ROCI USA_RMW USA_EYE TOKYO_LAT TOKYO_LON TOKYO_GRADE TOKYO_WIND TOKYO_PRES TOKYO_R50_DIR TOKYO_R50_LONG TOKYO_R50_SHORT TOKYO_R30_DIR TOKYO_R30_LONG TOKYO_R30_SHORT TOKYO_LAND CMA_LAT CMA_LON CMA_CAT CMA_WIND CMA_PRES HKO_LAT HKO_LON HKO_CAT HKO_WIND HKO_PRES NEWDELHI_LAT NEWDELHI_LON NEWDELHI_GRADE NEWDELHI_WIND NEWDELHI_PRES NEWDELHI_CI NEWDELHI_DP NEWDELHI_POCI REUNION_LAT REUNION_LON REUNION_TYPE REUNION_WIND REUNION_PRES REUNION_TNUM REUNION_CI REUNION_RMW REUNION_R34_NE REUNION_R34_SE REUNION_R34_SW REUNION_R34_NW REUNION_R50_NE REUNION_R50_SE REUNION_R50_SW REUNION_R50_NW REUNION_R64_NE REUNION_R64_SE REUNION_R64_SW REUNION_R64_NW BOM_LAT BOM_LON BOM_TYPE BOM_WIND BOM_PRES BOM_TNUM BOM_CI BOM_RMW BOM_R34_NE BOM_R34_SE BOM_R34_SW BOM_R34_NW BOM_R50_NE BOM_R50_SE BOM_R50_SW BOM_R50_NW BOM_R64_NE BOM_R64_SE BOM_R64_SW BOM_R64_NW BOM_ROCI BOM_POCI BOM_EYE BOM_POS_METHOD BOM_PRES_METHOD NADI_LAT NADI_LON NADI_CAT NADI_WIND NADI_PRES WELLINGTON_LAT WELLINGTON_LON WELLINGTON_WIND WELLINGTON_PRES DS824_LAT DS824_LON DS824_STAGE DS824_WIND DS824_PRES TD9636_LAT TD9636_LON TD9636_STAGE TD9636_WIND TD9636_PRES TD9635_LAT TD9635_LON TD9635_WIND TD9635_PRES TD9635_ROCI NEUMANN_LAT NEUMANN_LON NEUMANN_CLASS NEUMANN_WIND NEUMANN_PRES MLC_LAT MLC_LON MLC_CLASS MLC_WIND MLC_PRES USA_GUST BOM_GUST BOM_GUST_PER REUNION_GUST REUNION_GUST_PER USA_SEAHGT USA_SEARAD_NE USA_SEARAD_SE USA_SEARAD_SW USA_SEARAD_NW STORM_SPEED STORM_DIR
1877286N27312 1877 32 NA NA NOT_NAMED 1877-10-13 00:00:00 TS 27.0000 -48.0000 50 hurdat_atl main 2041 2029 O_____________ hurdat_atl AL061877 27.0000 -48.0000 TS 50 0 13 328
1877286N27312 1877 32 NA NA NOT_NAMED 1877-10-13 03:00:00 TS 27.5401 -48.3845 main 2029 2020 P_____________ AL061877 27.5401 -48.3845 TS 50 0 13 327
1877286N27312 1877 32 NA NA NOT_NAMED 1877-10-13 06:00:00 TS 28.1000 -48.8000 50 hurdat_atl main 2025 2016 O_____________ hurdat_atl AL061877 28.1000 -48.8000 TS 50 0 14 326
1877286N27312 1877 32 NA NA NOT_NAMED 1877-10-13 09:00:00 TS 28.6926 -49.2575 main 2016 1950 P_____________ AL061877 28.6926 -49.2575 TS 50 0 14 327
1877286N27312 1877 32 NA NA NOT_NAMED 1877-10-13 12:00:00 TS 29.3000 -49.7000 50 hurdat_atl main 1950 1878 O_____________ hurdat_atl AL061877 29.3000 -49.7000 TS 50 0 14 329
1877286N27312 1877 32 NA NA NOT_NAMED 1877-10-13 15:00:00 TS 29.8923 -50.0731 main 1878 1808 P_____________ AL061877 29.8923 -50.0731 TS 50 0 13 333
1877286N27312 1877 32 NA NA NOT_NAMED 1877-10-13 18:00:00 TS 30.5000 -50.4000 50 hurdat_atl main 1808 1738 O_____________ hurdat_atl AL061877 30.5000 -50.4000 TS 50 0 14 337
1877286N27312 1877 32 NA NA NOT_NAMED 1877-10-13 21:00:00 TS 31.1498 -50.6932 main 1738 1658 P_____________ AL061877 31.1498 -50.6932 TS 50 0 14 338
1877286N27312 1877 32 NA NA NOT_NAMED 1877-10-14 00:00:00 TS 31.8000 -51.0000 50 hurdat_atl main 1658 1599 O_____________ hurdat_atl AL061877 31.8000 -51.0000 TS 50 0 14 333
1877286N27312 1877 32 NA NA NOT_NAMED 1877-10-14 03:00:00 TS 32.3702 -51.4151 main 1587 1518 P_____________ AL061877 32.3702 -51.4151 TS 50 0 14 331
1877286N27312 1877 32 NA NA NOT_NAMED 1877-10-14 06:00:00 TS 33.0000 -51.8000 50 hurdat_atl main 1518 1428 O_____________ hurdat_atl AL061877 33.0000 -51.8000 TS 50 0 16 341
1877286N27312 1877 32 NA NA NOT_NAMED 1877-10-14 09:00:00 TS 33.8647 -52.0231 main 1416 1326 P_____________ AL061877 33.8647 -52.0231 TS 50 0 17 349
1877286N27312 1877 32 NA NA NOT_NAMED 1877-10-14 12:00:00 TS 34.7000 -52.2000 50 hurdat_atl main 1326 1269 O_____________ hurdat_atl AL061877 34.7000 -52.2000 TS 50 0 15 345
1877286N27312 1877 32 NA NA NOT_NAMED 1877-10-14 15:00:00 TS 35.2676 -52.4725 main 1258 1213 P_____________ AL061877 35.2676 -52.4725 TS 50 0 11 338
1877286N27312 1877 32 NA NA NOT_NAMED 1877-10-14 18:00:00 TS 35.7000 -52.7000 50 hurdat_atl main 1213 1168 O_____________ hurdat_atl AL061877 35.7000 -52.7000 TS 50 0 9 344
1877286N27312 1877 32 NA NA NOT_NAMED 1877-10-14 21:00:00 TS 36.1224 -52.7806 main 1168 1124 P_____________ AL061877 36.1224 -52.7806 TS 50 0 8 354
1877286N27312 1877 32 NA NA NOT_NAMED 1877-10-15 00:00:00 TS 36.5000 -52.8000 50 hurdat_atl main 1124 1090 O_____________ hurdat_atl AL061877 36.5000 -52.8000 TS 50 0 7 356
1877286N27312 1877 32 NA NA NOT_NAMED 1877-10-15 03:00:00 TS 36.8650 -52.8500 main 1079 1045 P_____________ AL061877 36.8650 -52.8500 TS 50 0 7 354
1877286N27312 1877 32 NA NA NOT_NAMED 1877-10-15 06:00:00 TS 37.2000 -52.9000 50 hurdat_atl main 1045 1012 O_____________ hurdat_atl AL061877 37.2000 -52.9000 TS 50 0 6 352
1877286N27312 1877 32 NA NA NOT_NAMED 1877-10-15 09:00:00 TS 37.5000 -52.9649 main 1012 978 P_____________ AL061877 37.5000 -52.9649 TS 50 0 6 352
1877286N27312 1877 32 NA NA NOT_NAMED 1877-10-15 12:00:00 TS 37.8000 -53.0000 50 hurdat_atl main 978 945 O_____________ hurdat_atl AL061877 37.8000 -53.0000 TS 50 0 6 358
1877286N27312 1877 32 NA NA NOT_NAMED 1877-10-15 15:00:00 TS 38.1275 -52.9725 main 945 901 P_____________ AL061877 38.1275 -52.9725 TS 50 0 7 6
1877286N27312 1877 32 NA NA NOT_NAMED 1877-10-15 18:00:00 TS 38.5000 -52.9000 50 hurdat_atl main 901 856 O_____________ hurdat_atl AL061877 38.5000 -52.9000 TS 50 0 8 8
1877286N27312 1877 32 NA NA NOT_NAMED 1877-10-15 21:00:00 TS 38.9199 -52.8295 main 856 801 P_____________ AL061877 38.9199 -52.8295 TS 50 0 9 10
1877286N27312 1877 32 NA NA NOT_NAMED 1877-10-16 00:00:00 TS 39.4000 -52.7000 50 hurdat_atl main 801 747 O_____________ hurdat_atl AL061877 39.4000 -52.7000 TS 50 0 10 14
1877286N27312 1877 32 NA NA NOT_NAMED 1877-10-16 03:00:00 TS 39.9274 -52.4945 main 747 682 P_____________ AL061877 39.9274 -52.4945 TS 50 0 12 19
1877286N27312 1877 32 NA NA NOT_NAMED 1877-10-16 06:00:00 TS 40.5000 -52.2000 50 hurdat_atl main 682 620 O_____________ hurdat_atl AL061877 40.5000 -52.2000 TS 50 0 13 23
1877286N27312 1877 32 NA NA NOT_NAMED 1877-10-16 09:00:00 TS 41.1074 -51.8374 main 621 563 P_____________ AL061877 41.1074 -51.8374 TS 50 0 13 27
1877286N27312 1877 32 NA NA NOT_NAMED 1877-10-16 12:00:00 TS 41.7000 -51.4000 50 hurdat_atl main 563 519 O_____________ hurdat_atl AL061877 41.7000 -51.4000 TS 50 0 13 31
1877286N27312 1877 32 NA NA NOT_NAMED 1877-10-16 15:00:00 TS 42.2069 -50.9506 main 519 486 P_____________ AL061877 42.2069 -50.9506 TS 50 0 12 37
1877286N27312 1877 32 NA NA NOT_NAMED 1877-10-16 18:00:00 TS 42.7000 -50.4000 50 hurdat_atl main 486 462 O_____________ hurdat_atl AL061877 42.7000 -50.4000 TS 50 0 14 41
1877286N27312 1877 32 NA NA NOT_NAMED 1877-10-16 21:00:00 TS 43.2724 -49.7032 main 457 451 P_____________ AL061877 43.2724 -49.7032 TS 50 0 15 45
1877286N27312 1877 32 NA NA NOT_NAMED 1877-10-17 00:00:00 ET 43.8000 -48.9000 50 hurdat_atl main 457 455 O_____________ hurdat_atl AL061877 43.8000 -48.9000 EX 50 -4 15 53
1877286N27312 1877 32 NA NA NOT_NAMED 1877-10-17 03:00:00 ET 44.1720 -48.0701 main 477 477 P_____________ AL061877 44.1720 -48.0701 EX 50 -4 14 60
1877286N27312 1877 32 NA NA NOT_NAMED 1877-10-17 06:00:00 ET 44.5000 -47.2000 50 hurdat_atl main 516 516 O_____________ hurdat_atl AL061877 44.5000 -47.2000 EX 50 -4 14 59
1877286N27312 1877 32 NA NA NOT_NAMED 1877-10-17 09:00:00 ET 44.8979 -46.3658 main 550 550 P_____________ AL061877 44.8979 -46.3658 EX 50 -4 15 58
1877286N27312 1877 32 NA NA NOT_NAMED 1877-10-17 12:00:00 ET 45.3000 -45.4000 50 hurdat_atl main 601 601 O_____________ hurdat_atl AL061877 45.3000 -45.4000 EX 50 -4 17 64
1877286N27312 1877 32 NA NA NOT_NAMED 1877-10-17 15:00:00 ET 45.6509 -44.1438 main 676 676 P_____________ AL061877 45.6509 -44.1438 EX 50 -4 19 69
1877286N27312 1877 32 NA NA NOT_NAMED 1877-10-17 18:00:00 ET 46.0000 -42.8000 50 hurdat_atl main 761 761 O_____________ hurdat_atl AL061877 46.0000 -42.8000 EX 50 -4 19 67
1877286N27312 1877 32 NA NA NOT_NAMED 1877-10-17 21:00:00 ET 46.4055 -41.5918 main 839 839 P_____________ AL061877 46.4055 -41.5918 EX 50 -4 18 64
1877286N27312 1877 32 NA NA NOT_NAMED 1877-10-18 00:00:00 ET 46.8000 -40.4000 50 hurdat_atl main 920 920 O_____________ hurdat_atl AL061877 46.8000 -40.4000 EX 50 -4 18 67
1877286N27312 1877 32 NA NA NOT_NAMED 1877-10-18 03:00:00 ET 47.1295 -39.1341 main 1013 1013 P_____________ AL061877 47.1295 -39.1341 EX 50 -4 18 71
1877286N27312 1877 32 NA NA NOT_NAMED 1877-10-18 06:00:00 ET 47.4000 -37.9000 50 hurdat_atl main 1098 1098 O_____________ hurdat_atl AL061877 47.4000 -37.9000 EX 50 -4 16 73
1877286N27312 1877 32 NA NA NOT_NAMED 1877-10-18 09:00:00 ET 47.6038 -36.8340 main 1178 1178 P_____________ AL061877 47.6039 -36.8340 EX 50 -4 15 75
1877286N27312 1877 32 NA NA NOT_NAMED 1877-10-18 12:00:00 ET 47.8000 -35.7000 50 hurdat_atl main 1258 1258 O_____________ hurdat_atl AL061877 47.8000 -35.7000 EX 50 -4 18 76
1877286N27312 1877 32 NA NA NOT_NAMED 1877-10-18 15:00:00 ET 48.0412 -34.2924 main 1360 1360 P_____________ AL061877 48.0412 -34.2924 EX 50 -4 21 76
1877286N27312 1877 32 NA NA NOT_NAMED 1877-10-18 18:00:00 ET 48.3000 -32.7000 50 hurdat_atl main 1466 O_____________ hurdat_atl AL061877 48.3000 -32.7000 EX 50 -4 22 76

IBTrACS Databaseについて

本データベースは、米国NOAAが公開する1842年以降の世界の熱帯低気圧のベストトラックデータアーカイブInternational Best Track Archive for Climate Stewardship (IBTrACS)を、ウェブで閲覧しやすい形式に変換したものです。

最終更新日:2021-10-25